Time;durP1;ratioP1;P1;durP2;ratioP2;P2;SDS_P1;SDS_P2;PMS_P1;PMS_P2;Temp;Humidity;BMP_temperature;BMP_pressure;BME280_temperature;BME280_humidity;BME280_pressure;Samples;Min_cycle;Max_cycle;Signal;HPM_P1;HPM_P2
2021/07/25 00:00:41;;;;;;;72.45;43.28;;;19.50;99.90;;;;;;4996498;28;20556;-82
2021/07/25 00:03:07;;;;;;;67.55;41.85;;;19.40;99.90;;;;;;5008715;28;20037;-82
2021/07/25 00:05:32;;;;;;;70.07;41.83;;;19.40;99.90;;;;;;4992989;28;20030;-82
2021/07/25 00:07:58;;;;;;;63.05;43.15;;;19.40;99.90;;;;;;4980866;28;20025;-82
2021/07/25 00:10:23;;;;;;;63.22;40.22;;;19.40;99.90;;;;;;4996595;28;20026;-82
2021/07/25 00:12:49;;;;;;;57.95;38.88;;;19.40;99.90;;;;;;5012333;28;20045;-82
2021/07/25 00:15:14;;;;;;;65.32;41.22;;;19.40;99.90;;;;;;5010035;28;20040;-82
2021/07/25 00:17:40;;;;;;;57.97;38.20;;;19.30;99.90;;;;;;4979234;28;20404;-82
2021/07/25 00:20:06;;;;;;;61.90;39.13;;;19.30;99.90;;;;;;4996311;28;20026;-82
2021/07/25 00:22:32;;;;;;;63.28;41.85;;;19.30;99.90;;;;;;5012672;28;20022;-82
2021/07/25 00:25:08;;;;;;;62.97;39.33;;;19.30;99.90;;;;;;4995516;28;20022;-82
2021/07/25 00:27:39;;;;;;;55.97;36.63;;;19.30;99.90;;;;;;5012524;28;20047;-82
2021/07/25 00:30:05;;;;;;;54.28;36.10;;;19.30;99.90;;;;;;5011598;28;20021;-82
2021/07/25 00:32:31;;;;;;;59.28;36.17;;;19.30;99.90;;;;;;4979351;28;20063;-81
2021/07/25 00:34:57;;;;;;;59.67;34.55;;;19.30;99.90;;;;;;5006381;28;20548;-82
2021/07/25 00:37:22;;;;;;;59.70;35.83;;;19.30;99.90;;;;;;5008209;28;20025;-82
2021/07/25 00:39:48;;;;;;;54.08;34.70;;;19.30;99.90;;;;;;4992761;28;20084;-82
2021/07/25 00:42:13;;;;;;;61.58;35.65;;;19.30;99.90;;;;;;5006695;28;20037;-82
2021/07/25 00:44:39;;;;;;;53.47;34.83;;;19.30;99.90;;;;;;5003053;28;20034;-82
2021/07/25 00:47:04;;;;;;;52.28;34.38;;;19.30;99.90;;;;;;4989376;28;20036;-82
2021/07/25 00:49:30;;;;;;;56.20;34.50;;;19.30;99.90;;;;;;5001206;28;20084;-82
2021/07/25 00:51:55;;;;;;;51.92;34.85;;;19.30;99.90;;;;;;4979765;28;20106;-82
2021/07/25 00:54:22;;;;;;;49.65;35.25;;;19.30;99.90;;;;;;5012269;28;20088;-82
2021/07/25 00:56:47;;;;;;;54.90;35.28;;;19.30;99.90;;;;;;4995651;28;20385;-82
2021/07/25 00:59:13;;;;;;;52.45;35.10;;;19.30;99.90;;;;;;4991544;28;20539;-82
2021/07/25 01:01:38;;;;;;;54.88;32.85;;;19.30;99.90;;;;;;4991961;28;20064;-82
2021/07/25 01:04:37;;;;;;;49.25;31.73;;;19.30;99.90;;;;;;4993140;28;20026;-82
2021/07/25 01:07:35;;;;;;;54.33;33.30;;;19.30;99.90;;;;;;4998123;28;20029;-81
2021/07/25 01:10:07;;;;;;;44.38;30.48;;;19.20;99.90;;;;;;4987828;28;20096;-82
2021/07/25 01:12:38;;;;;;;50.33;32.55;;;19.20;99.90;;;;;;4976622;28;20477;-81
2021/07/25 01:15:04;;;;;;;53.72;31.77;;;19.20;99.90;;;;;;5000836;28;20507;-82
2021/07/25 01:17:33;;;;;;;45.67;30.45;;;19.20;99.90;;;;;;5010903;28;20126;-82
2021/07/25 01:20:00;;;;;;;49.78;31.00;;;19.20;99.90;;;;;;5003433;28;20739;-82
2021/07/25 01:22:27;;;;;;;47.08;32.67;;;19.20;99.90;;;;;;4980869;28;20029;-81
2021/07/25 01:24:53;;;;;;;43.30;31.17;;;19.20;99.90;;;;;;4980143;28;20412;-81
2021/07/25 01:27:38;;;;;;;49.97;31.85;;;19.20;99.90;;;;;;5006724;28;20025;-82
2021/07/25 01:30:06;;;;;;;44.97;29.55;;;19.20;99.90;;;;;;5004527;28;20136;-82
2021/07/25 01:32:31;;;;;;;42.63;29.63;;;19.10;99.90;;;;;;4995204;28;20045;-82
2021/07/25 01:34:58;;;;;;;41.08;30.23;;;19.10;99.90;;;;;;5011120;28;20045;-82
2021/07/25 01:37:25;;;;;;;51.30;29.42;;;19.10;99.90;;;;;;4973618;28;20088;-82
2021/07/25 01:39:51;;;;;;;43.78;30.27;;;19.10;99.90;;;;;;4988869;28;20024;-82
2021/07/25 01:42:29;;;;;;;39.58;28.38;;;19.10;99.90;;;;;;5009880;28;20033;-82
2021/07/25 01:44:55;;;;;;;36.20;26.55;;;19.10;99.90;;;;;;4991715;28;20124;-82
2021/07/25 01:47:20;;;;;;;42.88;27.45;;;19.10;99.90;;;;;;4958864;28;20550;-81
2021/07/25 01:49:46;;;;;;;40.38;28.15;;;19.10;99.90;;;;;;4985017;28;20133;-82
2021/07/25 01:52:11;;;;;;;43.53;29.02;;;19.10;99.90;;;;;;4991585;28;20682;-82
2021/07/25 01:54:37;;;;;;;43.63;29.30;;;19.00;99.90;;;;;;5016564;28;20063;-82
2021/07/25 01:57:02;;;;;;;41.10;28.65;;;19.10;99.90;;;;;;5010677;28;20043;-82
2021/07/25 01:59:28;;;;;;;47.88;28.65;;;19.00;99.90;;;;;;5009988;28;20035;-82
2021/07/25 02:01:53;;;;;;;40.47;27.52;;;19.00;99.90;;;;;;4994981;28;20560;-81
2021/07/25 02:04:19;;;;;;;42.30;27.77;;;19.00;99.90;;;;;;5011093;28;20044;-82
2021/07/25 02:06:44;;;;;;;40.50;27.23;;;19.00;99.90;;;;;;5010580;28;20057;-82
2021/07/25 02:09:12;;;;;;;37.20;26.05;;;19.00;99.90;;;;;;5001031;28;20065;-82
2021/07/25 02:11:38;;;;;;;42.85;28.25;;;19.00;99.90;;;;;;4995886;28;20033;-82
2021/07/25 02:14:04;;;;;;;39.63;26.77;;;19.00;99.90;;;;;;4982300;28;20060;-82
2021/07/25 02:16:29;;;;;;;36.83;25.77;;;18.90;99.90;;;;;;5018817;28;20033;-82
2021/07/25 02:18:55;;;;;;;38.58;27.15;;;18.90;99.90;;;;;;5020383;28;20034;-82
2021/07/25 02:21:20;;;;;;;42.22;26.48;;;18.90;99.90;;;;;;4999005;28;20762;-82
2021/07/25 02:23:46;;;;;;;43.15;27.08;;;18.80;99.90;;;;;;5010677;28;20037;-82
2021/07/25 02:26:11;;;;;;;38.13;26.52;;;18.90;99.90;;;;;;5014001;28;20083;-82
2021/07/25 02:28:37;;;;;;;43.90;26.25;;;18.90;99.90;;;;;;5010409;28;20029;-82
2021/07/25 02:31:02;;;;;;;37.97;27.83;;;18.80;99.90;;;;;;5004942;28;20084;-82
2021/07/25 02:33:28;;;;;;;42.22;27.85;;;18.90;99.90;;;;;;5002963;28;20048;-82
2021/07/25 02:35:55;;;;;;;38.00;26.73;;;18.80;99.90;;;;;;4989987;28;20033;-82
2021/07/25 02:38:21;;;;;;;37.55;26.80;;;18.90;99.90;;;;;;4984828;28;20103;-82
2021/07/25 02:40:46;;;;;;;41.22;26.60;;;18.80;99.90;;;;;;4989932;28;20038;-82
2021/07/25 02:43:12;;;;;;;45.15;29.15;;;18.80;99.90;;;;;;5008191;28;20030;-82
2021/07/25 02:45:37;;;;;;;41.97;28.70;;;18.80;99.90;;;;;;5026442;28;20022;-82
2021/07/25 02:48:03;;;;;;;49.97;29.80;;;18.80;99.90;;;;;;4993529;28;20055;-82
2021/07/25 02:50:29;;;;;;;36.22;27.13;;;18.80;99.90;;;;;;5010471;28;20606;-82
2021/07/25 02:52:54;;;;;;;45.08;29.15;;;18.80;99.90;;;;;;4988500;28;20701;-82
2021/07/25 02:55:20;;;;;;;44.03;28.00;;;18.80;99.90;;;;;;4993528;28;20451;-82
2021/07/25 02:57:45;;;;;;;44.75;29.63;;;18.80;99.90;;;;;;5027822;28;20021;-82
2021/07/25 03:00:12;;;;;;;38.72;28.13;;;18.80;99.90;;;;;;5010324;28;20044;-82
2021/07/25 03:02:37;;;;;;;44.88;28.23;;;18.80;99.90;;;;;;4993662;28;20133;-82
2021/07/25 03:05:04;;;;;;;40.60;26.42;;;18.80;99.90;;;;;;4990328;28;20466;-82
2021/07/25 03:07:29;;;;;;;40.72;27.88;;;18.70;99.90;;;;;;5026400;28;20432;-82
2021/07/25 03:09:55;;;;;;;43.90;28.02;;;18.70;99.90;;;;;;5027495;28;20026;-82
2021/07/25 03:12:20;;;;;;;42.70;27.63;;;18.70;99.90;;;;;;5009892;28;20038;-82
2021/07/25 03:14:46;;;;;;;37.22;26.55;;;18.70;99.90;;;;;;5001421;28;20033;-82
2021/07/25 03:17:11;;;;;;;38.90;27.73;;;18.70;99.90;;;;;;5009383;28;20654;-82
2021/07/25 03:19:37;;;;;;;39.42;27.38;;;18.70;99.90;;;;;;5009692;28;20029;-82
2021/07/25 03:22:04;;;;;;;35.55;26.42;;;18.70;99.90;;;;;;4992337;28;20548;-82
2021/07/25 03:24:31;;;;;;;40.28;27.98;;;18.60;99.90;;;;;;5012163;28;20551;-83
2021/07/25 03:26:56;;;;;;;42.90;28.10;;;18.60;99.90;;;;;;5013199;28;20025;-83
2021/07/25 03:29:22;;;;;;;44.63;28.10;;;18.60;99.90;;;;;;5012561;28;20099;-82
2021/07/25 03:31:47;;;;;;;45.05;27.88;;;18.60;99.90;;;;;;5013201;28;20036;-82
2021/07/25 03:34:13;;;;;;;44.58;28.23;;;18.60;99.90;;;;;;5013518;28;20041;-82
2021/07/25 03:36:39;;;;;;;46.22;28.80;;;18.60;99.90;;;;;;5031245;28;20129;-82
2021/07/25 03:39:09;;;;;;;45.50;28.95;;;18.60;99.90;;;;;;5013218;28;20033;-82
2021/07/25 03:41:34;;;;;;;43.78;29.63;;;18.60;99.90;;;;;;5025643;23;20196;-85
2021/07/25 03:44:00;;;;;;;45.53;28.02;;;18.60;99.90;;;;;;5000255;28;20112;-86
2021/07/25 03:46:25;;;;;;;46.13;28.77;;;18.60;99.90;;;;;;4999574;28;20028;-86
2021/07/25 03:48:51;;;;;;;48.08;29.45;;;18.60;99.90;;;;;;4982028;28;20040;-85
2021/07/25 03:51:16;;;;;;;42.03;29.60;;;18.60;99.90;;;;;;4999093;28;20030;-86
2021/07/25 03:53:42;;;;;;;43.97;28.33;;;18.50;99.90;;;;;;5035936;28;20044;-86
2021/07/25 03:56:07;;;;;;;46.95;26.60;;;18.50;99.90;;;;;;5018777;28;20058;-86
2021/07/25 03:58:33;;;;;;;42.42;27.77;;;18.50;99.90;;;;;;5033749;28;20089;-85
2021/07/25 04:00:58;;;;;;;49.15;28.10;;;18.50;99.90;;;;;;5018461;28;20553;-86
2021/07/25 04:03:24;;;;;;;39.65;24.63;;;18.50;99.90;;;;;;5015540;28;20033;-86
2021/07/25 04:05:49;;;;;;;43.33;25.48;;;18.50;99.90;;;;;;5032013;28;20033;-86
2021/07/25 04:08:16;;;;;;;40.60;24.83;;;18.50;99.90;;;;;;5031577;28;20033;-86
2021/07/25 04:10:41;;;;;;;41.38;28.13;;;18.50;99.90;;;;;;4999228;28;20025;-86
2021/07/25 04:13:08;;;;;;;42.47;26.65;;;18.40;99.90;;;;;;4999023;28;20029;-86
2021/07/25 04:15:40;;;;;;;42.28;27.15;;;18.50;99.90;;;;;;4996872;28;20041;-86
2021/07/25 04:18:05;;;;;;;42.55;25.95;;;18.50;99.90;;;;;;5011116;28;20389;-85
2021/07/25 04:20:31;;;;;;;42.35;27.45;;;18.50;99.90;;;;;;4979163;28;20032;-85
2021/07/25 04:22:56;;;;;;;41.55;24.98;;;18.50;99.90;;;;;;4995685;28;20056;-85
2021/07/25 04:25:22;;;;;;;38.65;26.38;;;18.50;99.90;;;;;;4995467;28;20045;-85
2021/07/25 04:27:48;;;;;;;39.47;24.65;;;18.50;99.90;;;;;;4978894;28;20128;-86
2021/07/25 04:30:14;;;;;;;46.03;25.35;;;18.50;99.90;;;;;;4979137;28;20041;-86
2021/07/25 04:32:40;;;;;;;39.28;25.25;;;18.40;99.90;;;;;;4994569;28;20496;-85
2021/07/25 04:35:08;;;;;;;32.65;24.15;;;18.40;99.90;;;;;;4978436;28;20132;-85
2021/07/25 04:37:36;;;;;;;36.08;24.48;;;18.40;99.90;;;;;;4994351;28;20033;-85
2021/07/25 04:40:01;;;;;;;41.03;24.83;;;18.40;99.90;;;;;;4995289;28;20036;-85
2021/07/25 04:42:27;;;;;;;40.15;25.85;;;18.40;99.90;;;;;;5014119;28;20423;-86
2021/07/25 04:45:02;;;;;;;35.35;23.73;;;18.40;99.90;;;;;;5014937;28;20021;-85
2021/07/25 04:47:44;;;;;;;35.72;23.35;;;18.40;99.90;;;;;;5015571;28;20052;-85
2021/07/25 04:50:13;;;;;;;37.33;23.15;;;18.40;99.90;;;;;;5015521;28;20029;-85
2021/07/25 04:52:40;;;;;;;31.35;21.10;;;18.40;99.90;;;;;;4998665;28;20075;-86
2021/07/25 04:55:09;;;;;;;36.92;21.83;;;18.40;99.90;;;;;;4998325;28;20091;-86
2021/07/25 04:57:41;;;;;;;30.52;20.13;;;18.40;99.90;;;;;;5014717;28;20025;-85
2021/07/25 05:00:13;;;;;;;30.13;21.27;;;18.40;99.90;;;;;;4997998;28;20086;-86
2021/07/25 05:02:39;;;;;;;40.47;23.08;;;18.40;99.90;;;;;;4992979;28;20276;-86
2021/07/25 05:05:05;;;;;;;37.17;23.60;;;18.40;99.90;;;;;;4995101;28;20023;-87
2021/07/25 05:07:34;;;;;;;28.35;19.08;;;18.50;99.90;;;;;;5013597;28;20033;-86
2021/07/25 05:10:00;;;;;;;29.77;18.13;;;18.50;99.90;;;;;;5014473;28;20415;-86
2021/07/25 05:12:35;;;;;;;32.65;18.42;;;18.50;99.90;;;;;;4996603;28;20028;-86
2021/07/25 05:15:04;;;;;;;27.52;16.27;;;18.50;99.90;;;;;;5014117;28;20493;-85
2021/07/25 05:17:37;;;;;;;24.00;15.90;;;18.50;99.90;;;;;;5030248;28;20040;-86
2021/07/25 05:20:08;;;;;;;23.77;15.38;;;18.50;99.90;;;;;;4997956;28;20021;-87
2021/07/25 05:22:55;;;;;;;22.60;14.07;;;18.60;99.90;;;;;;4998015;28;20027;-86
2021/07/25 05:25:23;;;;;;;21.15;15.13;;;18.60;99.90;;;;;;4995707;28;20050;-86
2021/07/25 05:27:49;;;;;;;22.70;13.00;;;18.60;99.90;;;;;;5000996;28;20146;-86
2021/07/25 05:30:17;;;;;;;21.83;12.80;;;18.60;99.90;;;;;;5047035;28;20552;-86
2021/07/25 05:32:42;;;;;;;22.02;12.70;;;18.60;99.90;;;;;;5030245;28;20071;-86
2021/07/25 05:35:08;;;;;;;21.92;13.35;;;18.60;99.90;;;;;;5046881;28;20060;-86
2021/07/25 05:37:34;;;;;;;17.27;12.30;;;18.70;99.90;;;;;;4993696;28;20075;-87
2021/07/25 05:39:59;;;;;;;20.38;12.25;;;18.70;99.90;;;;;;4995427;28;20119;-86
2021/07/25 05:42:25;;;;;;;28.08;12.48;;;18.70;99.90;;;;;;4993448;28;20068;-87
2021/07/25 05:44:50;;;;;;;21.42;11.80;;;18.70;99.90;;;;;;4996055;28;20059;-86
2021/07/25 05:47:16;;;;;;;19.80;11.55;;;18.70;99.90;;;;;;4992881;28;20848;-86
2021/07/25 05:49:41;;;;;;;20.05;11.27;;;18.70;99.90;;;;;;5011275;28;20029;-86
2021/07/25 05:52:07;;;;;;;19.17;10.38;;;18.70;99.90;;;;;;4994404;28;20105;-86
2021/07/25 05:54:32;;;;;;;22.98;10.80;;;18.80;99.90;;;;;;5000486;28;20065;-86
2021/07/25 05:56:59;;;;;;;16.30;9.88;;;18.80;99.90;;;;;;5007710;28;20029;-86
2021/07/25 05:59:25;;;;;;;16.90;9.82;;;18.80;99.90;;;;;;5009763;28;20022;-85
2021/07/25 06:01:52;;;;;;;16.58;9.43;;;18.90;99.90;;;;;;5000037;28;20030;-86
2021/07/25 06:04:17;;;;;;;13.52;9.48;;;18.80;99.90;;;;;;5003074;28;20025;-86
2021/07/25 06:06:43;;;;;;;21.27;10.02;;;18.90;99.90;;;;;;4994833;28;20676;-86
2021/07/25 06:09:08;;;;;;;14.90;9.07;;;18.90;99.90;;;;;;4994343;28;20029;-85
2021/07/25 06:11:34;;;;;;;13.77;8.68;;;18.90;99.90;;;;;;4995749;28;20543;-85
2021/07/25 06:14:00;;;;;;;18.85;9.98;;;18.90;99.90;;;;;;5012218;28;20451;-86
2021/07/25 06:16:25;;;;;;;14.73;8.10;;;19.00;99.90;;;;;;5029549;28;20106;-86
2021/07/25 06:18:51;;;;;;;14.65;8.82;;;19.00;99.90;;;;;;4996663;28;20514;-86
2021/07/25 06:21:17;;;;;;;19.10;8.90;;;19.00;99.90;;;;;;4996904;28;20463;-86
2021/07/25 06:23:43;;;;;;;18.02;9.45;;;19.00;99.90;;;;;;5013186;28;20483;-86
2021/07/25 06:26:08;;;;;;;12.25;8.32;;;19.00;99.90;;;;;;5012873;28;20039;-86
2021/07/25 06:28:34;;;;;;;12.20;8.80;;;19.10;99.90;;;;;;5002346;28;20120;-86
2021/07/25 06:30:59;;;;;;;15.82;10.45;;;19.10;99.90;;;;;;5010997;28;20037;-86
2021/07/25 06:33:28;;;;;;;16.45;9.43;;;19.10;99.90;;;;;;5013275;28;20103;-86
2021/07/25 06:35:54;;;;;;;13.38;9.57;;;19.20;99.90;;;;;;5010950;28;20025;-86
2021/07/25 06:38:19;;;;;;;11.82;8.48;;;19.20;99.90;;;;;;4976872;28;20043;-86
2021/07/25 06:40:50;;;;;;;12.70;8.27;;;19.20;99.90;;;;;;4993240;28;20128;-86
2021/07/25 06:43:15;;;;;;;16.25;8.93;;;19.20;99.90;;;;;;4995471;28;20124;-86
2021/07/25 06:45:41;;;;;;;10.65;8.13;;;19.30;99.90;;;;;;4996405;28;20151;-86
2021/07/25 06:48:23;;;;;;;16.95;8.93;;;19.30;99.90;;;;;;5012727;28;20025;-87
2021/07/25 06:50:49;;;;;;;20.48;9.00;;;19.40;99.90;;;;;;4991790;28;20121;-86
2021/07/25 06:53:15;;;;;;;11.82;7.63;;;19.40;99.90;;;;;;4996884;28;20033;-86
2021/07/25 06:55:41;;;;;;;11.45;7.40;;;19.40;99.90;;;;;;4996788;28;20036;-86
2021/07/25 06:58:06;;;;;;;12.65;6.97;;;19.50;99.90;;;;;;5000478;28;20030;-86
2021/07/25 07:00:34;;;;;;;12.63;6.68;;;19.50;99.60;;;;;;5008523;28;20030;-86
2021/07/25 07:02:59;;;;;;;13.43;6.97;;;19.50;99.70;;;;;;5014126;28;20029;-86
2021/07/25 07:05:26;;;;;;;10.27;7.07;;;19.60;99.90;;;;;;5013192;28;20022;-86
2021/07/25 07:07:53;;;;;;;10.57;6.90;;;19.60;99.80;;;;;;4996900;28;20034;-85
2021/07/25 07:10:21;;;;;;;15.73;7.18;;;19.70;98.90;;;;;;4996845;28;20033;-84
2021/07/25 07:12:46;;;;;;;10.48;6.38;;;19.70;99.50;;;;;;5013339;28;20673;-85
2021/07/25 07:15:12;;;;;;;10.15;5.30;;;19.70;98.60;;;;;;5026231;28;20060;-86
2021/07/25 07:17:38;;;;;;;10.45;5.90;;;19.70;98.70;;;;;;4996423;28;20029;-85
2021/07/25 07:20:08;;;;;;;11.73;5.70;;;19.80;98.60;;;;;;4996780;28;20036;-85
2021/07/25 07:22:34;;;;;;;8.18;5.22;;;19.80;98.50;;;;;;5013055;28;20029;-85
2021/07/25 07:25:00;;;;;;;8.85;5.57;;;19.80;98.00;;;;;;5012661;28;20026;-85
2021/07/25 07:27:25;;;;;;;7.72;5.05;;;19.90;98.40;;;;;;5012920;28;20032;-85
2021/07/25 07:29:51;;;;;;;12.20;5.45;;;19.90;98.50;;;;;;5012707;28;20072;-85
2021/07/25 07:32:17;;;;;;;8.38;5.88;;;19.90;98.80;;;;;;5029486;28;20480;-85
2021/07/25 07:34:42;;;;;;;9.50;5.68;;;20.00;98.60;;;;;;5012691;28;20033;-85
2021/07/25 07:37:08;;;;;;;6.80;5.15;;;20.00;98.40;;;;;;4996355;28;20037;-87
2021/07/25 07:39:36;;;;;;;9.30;5.68;;;20.00;98.40;;;;;;4997572;28;20033;-86
2021/07/25 07:42:01;;;;;;;10.90;5.93;;;20.10;98.20;;;;;;5012058;28;20025;-86
2021/07/25 07:44:27;;;;;;;9.65;5.55;;;20.10;97.70;;;;;;4997015;28;20508;-86
2021/07/25 07:46:52;;;;;;;10.02;5.68;;;20.10;97.60;;;;;;4997310;28;20652;-87
2021/07/25 07:49:18;;;;;;;10.07;5.28;;;20.20;98.00;;;;;;5012935;28;20044;-87
2021/07/25 07:51:43;;;;;;;16.85;6.00;;;20.20;97.90;;;;;;5012910;28;20049;-87
2021/07/25 07:54:09;;;;;;;8.35;5.10;;;20.20;98.20;;;;;;5012619;28;20061;-84
2021/07/25 07:56:35;;;;;;;8.80;5.53;;;20.30;98.00;;;;;;5012257;28;20033;-85
2021/07/25 07:59:02;;;;;;;14.25;6.25;;;20.30;97.90;;;;;;5012317;28;20037;-84
2021/07/25 08:01:27;;;;;;;11.45;5.10;;;20.30;98.10;;;;;;5012067;28;20022;-87
2021/07/25 08:03:53;;;;;;;13.75;5.63;;;20.30;98.10;;;;;;5014741;28;20389;-87
2021/07/25 08:06:18;;;;;;;11.30;5.95;;;20.30;97.80;;;;;;5015796;28;20037;-86
2021/07/25 08:08:44;;;;;;;8.55;5.57;;;20.40;97.60;;;;;;4992012;28;20056;-86
2021/07/25 08:11:09;;;;;;;27.80;6.63;;;20.40;97.90;;;;;;5010166;28;20049;-84
2021/07/25 08:13:35;;;;;;;14.50;6.07;;;20.50;98.10;;;;;;5012063;28;20053;-84
2021/07/25 08:16:00;;;;;;;12.07;5.45;;;20.50;97.60;;;;;;4995761;28;20141;-85
2021/07/25 08:18:26;;;;;;;10.93;5.50;;;20.50;97.70;;;;;;4995253;28;20044;-85
2021/07/25 08:20:51;;;;;;;11.68;5.43;;;20.60;97.30;;;;;;4995488;28;20033;-85
2021/07/25 08:23:17;;;;;;;8.40;5.47;;;20.60;97.30;;;;;;5011593;28;20036;-85
2021/07/25 08:25:42;;;;;;;13.20;5.07;;;20.60;97.10;;;;;;5022719;28;20100;-86
2021/07/25 08:28:08;;;;;;;20.77;6.35;;;20.70;97.40;;;;;;4995271;28;20739;-87
2021/07/25 08:30:33;;;;;;;16.35;5.22;;;20.80;97.20;;;;;;4995670;28;20032;-85
2021/07/25 08:32:59;;;;;;;21.42;5.78;;;20.80;96.50;;;;;;4995620;28;20040;-83
2021/07/25 08:35:24;;;;;;;14.18;5.93;;;20.90;96.50;;;;;;5012021;28;20017;-84
2021/07/25 08:37:50;;;;;;;13.73;5.03;;;21.00;96.20;;;;;;4996422;28;20069;-86
2021/07/25 08:40:16;;;;;;;12.60;4.75;;;21.10;96.10;;;;;;5021985;28;20022;-87
2021/07/25 08:43:10;;;;;;;11.98;5.15;;;21.20;95.80;;;;;;4995090;28;20061;-88
2021/07/25 08:45:38;;;;;;;11.57;4.63;;;21.30;95.90;;;;;;5009067;28;20029;-81
2021/07/25 08:48:14;;;;;;;14.73;5.22;;;21.30;95.90;;;;;;5012166;28;20024;-79
2021/07/25 08:50:45;;;;;;;12.30;4.68;;;21.50;95.20;;;;;;5007692;28;20446;-80
2021/07/25 08:53:17;;;;;;;7.22;4.22;;;21.60;94.50;;;;;;5011795;28;20476;-79
2021/07/25 08:55:44;;;;;;;20.05;6.07;;;21.70;94.60;;;;;;5012460;28;20033;-81
2021/07/25 08:58:11;;;;;;;14.52;5.00;;;21.80;94.30;;;;;;5020059;28;20039;-80
2021/07/25 09:00:36;;;;;;;11.77;4.85;;;21.80;94.40;;;;;;5031310;28;20021;-80
2021/07/25 09:03:07;;;;;;;13.38;5.13;;;21.80;94.70;;;;;;5000741;28;20787;-78
2021/07/25 09:05:33;;;;;;;10.18;5.28;;;21.90;94.50;;;;;;5017278;28;20071;-79
2021/07/25 09:07:58;;;;;;;6.55;4.18;;;21.90;94.60;;;;;;5019670;28;20029;-80
2021/07/25 09:10:24;;;;;;;9.23;4.18;;;22.00;93.70;;;;;;5007813;28;20499;-80
2021/07/25 09:12:51;;;;;;;8.95;4.00;;;22.00;93.80;;;;;;4995944;28;20041;-80
2021/07/25 09:15:26;;;;;;;10.88;4.40;;;22.10;93.30;;;;;;5007150;28;20039;-80
2021/07/25 09:17:52;;;;;;;8.18;3.85;;;22.20;92.20;;;;;;5016019;28;20120;-80
2021/07/25 09:20:24;;;;;;;7.25;4.00;;;22.30;92.10;;;;;;5016513;28;20104;-79
2021/07/25 09:22:53;;;;;;;6.43;3.80;;;22.30;93.00;;;;;;5034544;28;20021;-80
2021/07/25 09:25:21;;;;;;;9.00;4.32;;;22.30;91.90;;;;;;5053110;28;20032;-80
2021/07/25 09:27:59;;;;;;;9.90;3.80;;;22.30;92.00;;;;;;5050902;28;20029;-80
2021/07/25 09:30:25;;;;;;;9.23;4.55;;;22.30;92.20;;;;;;5029931;28;20036;-80
2021/07/25 09:32:52;;;;;;;8.15;4.70;;;22.40;92.00;;;;;;4995165;28;20843;-80
2021/07/25 09:35:26;;;;;;;8.25;4.40;;;22.50;91.80;;;;;;5011114;28;20098;-80
2021/07/25 09:37:57;;;;;;;6.95;4.03;;;22.50;91.60;;;;;;5031635;28;20031;-80
2021/07/25 09:40:27;;;;;;;12.02;3.92;;;22.60;91.60;;;;;;5011081;28;20108;-81
2021/07/25 09:43:16;;;;;;;13.80;3.80;;;22.60;91.00;;;;;;5002035;28;20032;-80
2021/07/25 09:45:47;;;;;;;9.38;4.03;;;22.70;92.20;;;;;;4997954;28;20028;-80
